Latest Coastal Weather Observations for Dum In Mirrie

IDD60701

Issued at 10:41 pm CST Tuesday 28 June 2016 (issued every 10 minutes, with the page automatically refreshed every 10 minutes)

About coastal observations | Map of coastal stations | Coastal observations for NT | Marine services | Other Formats
Station Details ID: 014277 Name: DUM IN MIRRIE AIRSTRIP Lat: -12.63 Lon: 130.37 Height: 3.5 m
Data from the previous 72 hours. | See also: Recent months at Dum In Mirrie
Date/Time
CST
Temp
°C
Wind Pressure Rain since
9am
mm
Weather Cloud Vis
km
Sea
Height
m
Swell
Dir  Spd
kts
Gust
kts
hPa Trend Height
m
Period
s
Dir
28/10:30pm 27.0 W 2 3 1014.8 - 0.0 - - - - - - -
28/10:00pm 27.0 W 2 3 1014.7 - 0.0 - - - - - - -
28/09:30pm 27.2 W 3 5 1014.4 - 0.0 - - - - - - -
28/09:00pm 27.1 W 2 3 1014.1 - 0.0 - - - - - - -
28/08:30pm 26.9 W 2 4 1013.9 - 0.0 - - - - - - -
28/08:00pm 25.5 WNW 1 2 1013.6 - 0.0 - - - - - - -
28/07:30pm 25.9 NW 1 2 1013.3 - 0.0 - - - - - - -
28/07:00pm 27.0 CALM 0 0 1012.9 - 0.0 - - - - - - -
28/06:30pm 27.9 NNE 4 7 1012.5 - 0.0 - - - - - - -
28/06:00pm 28.7 NNE 5 8 1012.1 - 0.0 - - - - - - -
28/05:30pm 29.3 N 7 11 1011.7 - 0.0 - - - - - - -
28/05:00pm 29.9 N 5 9 1011.5 - 0.0 - - - - - - -
28/04:30pm 30.5 N 5 10 1011.3 - 0.0 - - - - - - -
28/04:00pm 30.6 N 7 11 1011.2 - 0.0 - - - - - - -
28/03:30pm 31.6 NNE 6 10 1011.3 - 0.0 - - - - - - -
28/03:00pm 33.0 ENE 6 10 1011.4 - 0.0 - - - - - - -
28/02:30pm 32.3 NE 7 10 1011.7 - 0.0 - - - - - - -
28/02:00pm 32.0 E 7 11 1012.0 - 0.0 - - - - - - -
28/01:30pm 32.1 E 8 13 1012.3 - 0.0 - - - - - - -
28/01:00pm 31.2 ESE 7 12 1012.9 - 0.0 - - - - - - -
28/12:30pm 30.9 E 9 16 1013.3 - 0.0 - - - - - - -
28/12:00pm 30.5 E 9 13 1013.7 - 0.0 - - - - - - -
28/11:30am 29.6 E 9 13 1014.1 - 0.0 - - - - - - -
28/11:00am 29.7 E 9 15 1014.4 - 0.0 - - - - - - -
28/10:30am 28.7 E 8 13 1014.5 - 0.0 - - - - - - -
28/10:00am 28.1 ESE 6 10 1014.5 - 0.0 - - - - - - -
28/09:30am 27.3 E 5 9 1014.5 - 0.0 - - - - - - -
28/09:00am 26.1 ESE 5 8 1014.2 - 0.0 - - - - - - -
28/08:30am 25.2 ESE 4 9 1014.1 - 0.0 - - - - - - -
28/08:00am 24.4 ESE 4 7 1013.8 - 0.0 - - - - - - -
28/07:30am 24.0 ESE 4 5 1013.3 - 0.0 - - - - - - -
28/07:00am 23.7 ESE 3 4 1013.0 - 0.0 - - - - - - -
28/06:30am 23.7 ESE 2 4 1012.8 - 0.0 - - - - - - -
28/06:00am 23.9 ESE 2 3 1012.5 - 0.0 - - - - - - -
28/05:30am 23.7 SE 1 2 1012.4 - 0.0 - - - - - - -
28/05:00am 23.9 ESE 1 2 1012.2 - 0.0 - - - - - - -
28/04:30am 24.4 ESE 2 2 1012.1 - 0.0 - - - - - - -
28/04:00am 24.8 ESE 2 3 1012.1 - 0.0 - - - - - - -
28/03:30am 24.9 E 3 4 1012.2 - 0.0 - - - - - - -
28/03:00am 25.1 E 3 5 1012.5 - 0.0 - - - - - - -
28/02:30am 25.0 ESE 2 4 1012.7 - 0.0 - - - - - - -
28/02:00am 24.7 E 3 5 1012.9 - 0.0 - - - - - - -
28/01:30am 23.9 ENE 2 3 1012.9 - 0.0 - - - - - - -
28/01:00am 24.2 E 2 3 1013.3 - 0.0 - - - - - - -
28/12:30am 23.5 NE 1 3 1013.4 - 0.0 - - - - - - -
28/12:00am 23.8 CALM 0 0 1013.5 - 0.0 - - - - - - -
 
Date/Time
CST
Temp
°C
Wind Pressure Rain since
9am
mm
Weather Cloud Vis
km
Sea
Height
m
Swell
Dir  Spd
kts
Gust
kts
hPa Trend Height
m
Period
s
Dir
27/11:30pm 24.0 CALM 0 0 1013.7 - 0.0 - - - - - - -
27/11:00pm 24.1 SE 1 3 1013.7 - 0.0 - - - - - - -
27/10:30pm 23.7 CALM 0 0 1013.6 - 0.0 - - - - - - -
27/10:00pm 24.0 CALM 0 0 1013.3 - 0.0 - - - - - - -
27/09:30pm 24.0 CALM 0 0 1013.0 - 0.0 - - - - - - -
27/09:00pm 24.5 CALM 0 0 1012.8 - 0.0 - - - - - - -
27/08:30pm 24.7 CALM 0 0 1012.5 - 0.0 - - - - - - -
27/08:00pm 25.0 CALM 0 0 1012.2 - 0.0 - - - - - - -
27/07:30pm 25.8 CALM 0 0 1011.8 - 0.0 - - - - - - -
27/07:00pm 26.7 CALM 0 0 1011.4 - 0.0 - - - - - - -
27/06:30pm 27.9 NNW 1 4 1011.1 - 0.0 - - - - - - -
27/06:00pm 28.7 NNW 2 5 1010.6 - 0.0 - - - - - - -
27/05:30pm 29.1 NNW 4 7 1010.3 - 0.0 - - - - - - -
27/05:00pm 29.5 NNW 4 7 1010.2 - 0.0 - - - - - - -
27/04:30pm 29.9 NNW 4 6 1009.9 - 0.0 - - - - - - -
27/04:00pm 29.7 NNW 5 9 1009.8 - 0.0 - - - - - - -
27/03:30pm 30.0 NNW 6 8 1009.8 - 0.0 - - - - - - -
27/03:00pm 30.4 NNW 6 9 1009.8 - 0.0 - - - - - - -
27/02:30pm 30.3 N 8 12 1010.0 - 0.0 - - - - - - -
27/02:00pm 30.9 N 8 12 1010.5 - 0.0 - - - - - - -
27/01:30pm 31.0 N 5 8 1010.9 - 0.0 - - - - - - -
27/01:00pm 32.0 E 4 6 1011.5 - 0.0 - - - - - - -
27/12:30pm 31.2 ENE 4 9 1012.1 - 0.0 - - - - - - -
27/12:00pm 30.3 ESE 3 5 1012.7 - 0.0 - - - - - - -
27/11:30am 30.5 ENE 6 10 1012.8 - 0.0 - - - - - - -
27/11:00am 29.9 ENE 5 7 1013.1 - 0.0 - - - - - - -
27/10:30am 29.4 E 5 7 1013.2 - 0.0 - - - - - - -
27/10:00am 28.7 E 4 5 1013.4 - 0.0 - - - - - - -
27/09:30am 27.8 E 3 5 1013.5 - 0.0 - - - - - - -
27/09:00am 26.5 ESE 3 5 1013.3 - 0.0 - - - - - - -
27/08:30am 24.9 ESE 2 3 1013.0 - 0.0 - - - - - - -
27/08:00am 23.6 SE 1 3 1012.6 - 0.0 - - - - - - -
27/07:30am 20.9 SE 1 2 1012.2 - 0.0 - - - - - - -
27/07:00am 21.4 ESE 2 2 1012.0 - 0.0 - - - - - - -
27/06:30am 21.8 E 1 3 1011.8 - 0.0 - - - - - - -
27/06:00am 21.7 ESE 2 2 1011.6 - 0.0 - - - - - - -
27/05:30am 21.7 ESE 2 2 1011.5 - 0.0 - - - - - - -
27/05:00am 22.6 SE 1 3 1011.4 - 0.0 - - - - - - -
27/04:30am 22.0 SSE 2 2 1011.3 - 0.0 - - - - - - -
27/04:00am 21.9 SSE 2 3 1011.1 - 0.0 - - - - - - -
27/03:30am 22.0 SSE 1 2 1011.0 - 0.0 - - - - - - -
27/03:00am 22.6 SSE 1 2 1011.1 - 0.0 - - - - - - -
27/02:30am 22.2 CALM 0 0 1011.4 - 0.0 - - - - - - -
27/02:00am 22.4 CALM 0 0 1011.6 - 0.0 - - - - - - -
27/01:30am 22.4 CALM 0 0 1011.7 - 0.0 - - - - - - -
27/01:00am 22.4 CALM 0 0 1012.0 - 0.0 - - - - - - -
27/12:30am 22.5 CALM 0 0 1012.1 - 0.0 - - - - - - -
27/12:00am 22.4 CALM 0 0 1012.2 - 0.0 - - - - - - -
 
Date/Time
CST
Temp
°C
Wind Pressure Rain since
9am
mm
Weather Cloud Vis
km
Sea
Height
m
Swell
Dir  Spd
kts
Gust
kts
hPa Trend Height
m
Period
s
Dir
26/11:30pm 23.2 CALM 0 0 1012.3 - 0.0 - - - - - - -
26/11:00pm 23.1 CALM 0 0 1012.3 - 0.0 - - - - - - -
26/10:30pm 23.2 CALM 0 0 1012.2 - 0.0 - - - - - - -
26/10:00pm 23.4 CALM 0 0 1012.2 - 0.0 - - - - - - -
26/09:30pm 23.7 CALM 0 0 1012.1 - 0.0 - - - - - - -
26/09:00pm 24.0 CALM 0 0 1011.9 - 0.0 - - - - - - -
26/08:30pm 24.4 CALM 0 0 1011.8 - 0.0 - - - - - - -
26/08:00pm 24.6 CALM 0 0 1011.5 - 0.0 - - - - - - -
26/07:30pm 25.9 CALM 0 1 1011.1 - 0.0 - - - - - - -
26/07:00pm 26.9 N 2 5 1010.8 - 0.0 - - - - - - -
26/06:30pm 27.4 N 3 4 1010.6 - 0.0 - - - - - - -
26/06:00pm 28.2 N 3 5 1010.3 - 0.0 - - - - - - -
26/05:30pm 29.1 N 4 8 1010.0 - 0.0 - - - - - - -
26/05:00pm 29.6 N 4 7 1009.7 - 0.0 - - - - - - -
26/04:30pm 29.0 NNW 4 6 1009.6 - 0.0 - - - - - - -
26/04:00pm 29.0 NNW 6 8 1009.6 - 0.0 - - - - - - -
26/03:30pm 29.0 NW 4 6 1009.7 - 0.0 - - - - - - -
26/03:00pm 29.9 NNW 5 8 1009.9 - 0.0 - - - - - - -
26/02:30pm 29.9 WNW 5 8 1010.2 - 0.0 - - - - - - -
26/02:00pm 30.0 WNW 4 7 1010.5 - 0.0 - - - - - - -
26/01:30pm 30.5 NW 2 5 1011.0 - 0.0 - - - - - - -
26/01:00pm 30.8 WNW 2 4 1011.6 - 0.0 - - - - - - -
26/12:30pm 30.0 W 3 5 1012.2 - 0.0 - - - - - - -
26/12:00pm 30.1 NW 2 4 1012.6 - 0.0 - - - - - - -
26/11:30am 30.5 E 3 7 1013.0 - 0.0 - - - - - - -
26/11:00am 29.4 SSW 2 5 1013.4 - 0.0 - - - - - - -
26/10:30am 28.5 SSE 2 3 1013.6 - 0.0 - - - - - - -
26/10:00am 27.4 SE 3 5 1013.9 - 0.0 - - - - - - -
26/09:30am 25.6 SE 2 4 1013.7 - 0.0 - - - - - - -
26/09:00am 24.9 SE 2 4 1013.6 - 0.0 - - - - - - -
26/08:30am 24.2 S 2 5 1013.2 - 0.0 - - - - - - -
26/08:00am 24.1 S 3 7 1012.9 - 0.0 - - - - - - -
26/07:30am 24.2 ESE 2 3 1012.4 - 0.0 - - - - - - -
26/07:00am 24.2 SE 1 3 1012.0 - 0.0 - - - - - - -
26/06:30am 24.1 SE 3 5 1011.7 - 0.0 - - - - - - -
26/06:00am 24.1 SSE 3 5 1011.6 - 0.0 - - - - - - -
26/05:30am 24.2 SE 2 5 1011.5 - 0.0 - - - - - - -
26/05:00am 24.3 SE 3 5 1011.3 - 0.0 - - - - - - -
26/04:30am 24.3 SSE 3 5 1011.1 - 0.0 - - - - - - -
26/04:00am 24.0 SSE 2 4 1011.0 - 0.0 - - - - - - -
26/03:30am 24.1 SSE 3 5 1011.1 - 0.0 - - - - - - -
26/03:00am 24.4 SSE 3 4 1011.3 - 0.0 - - - - - - -
26/02:30am 23.8 SSE 1 2 1011.2 - 0.0 - - - - - - -
26/02:00am 23.4 SSE 1 2 1011.3 - 0.0 - - - - - - -
26/01:30am 23.2 CALM 0 0 1011.3 - 0.0 - - - - - - -
26/01:00am 23.3 SSE 1 1 1011.4 - 0.0 - - - - - - -
26/12:30am 23.9 SSE 1 1 1011.6 - 0.0 - - - - - - -
26/12:00am 24.2 SSE 1 2 1011.7 - 0.0 - - - - - - -
 
Date/Time
CST
Temp
°C
Wind Pressure Rain since
9am
mm
Weather Cloud Vis
km
Sea
Height
m
Swell
Dir  Spd
kts
Gust
kts
hPa Trend Height
m
Period
s
Dir
25/11:30pm 24.4 SSE 1 2 1011.8 - 0.0 - - - - - - -
25/11:00pm 24.3 SSE 1 2 1012.0 - 0.0 - - - - - - -

Other Formats:

Comma delimited format used in spreadsheet applications
http://www.bom.gov.au/fwo/IDD60701/IDD60701.94116.axf

JavaScript Object Notation format (JSON) in row-major order
http://www.bom.gov.au/fwo/IDD60701/IDD60701.94116.json